Time;durP1;ratioP1;P1;durP2;ratioP2;P2;SDS_P1;SDS_P2;PMS_P1;PMS_P2;Temp;Humidity;BMP_temperature;BMP_pressure;BME280_temperature;BME280_humidity;BME280_pressure;Samples;Min_cycle;Max_cycle;Signal;HPM_P1;HPM_P2
2023/10/30 06:41:41;;;;;;;3.70;2.63;;;;;;;;;;2106432;27;20563;-64
2023/10/30 06:46:46;;;;;;;5.07;2.47;;;;;;;;;;2101909;27;20584;-64
2023/10/30 06:47:48;;;;;;;15.40;3.20;;;;;;;;;;2099676;28;20554;-65
2023/10/30 06:51:58;;;;;;;5.10;2.30;;;;;;;11.65;99.34;95523.31;2088411;27;21081;-65
2023/10/30 06:52:59;;;;;;;4.70;2.30;;;;;;;11.89;98.40;95526.03;2087649;28;20196;-65
2023/10/30 06:54:01;;;;;;;4.95;1.77;;;;;;;11.90;97.90;95535.56;2085742;28;20659;-65
2023/10/30 06:55:05;;;;;;;3.22;2.10;;;;;;;12.20;96.72;95526.63;2082028;28;20201;-65
2023/10/30 06:56:07;;;;;;;5.75;2.47;;;;;;;12.48;95.86;95522.09;2081173;28;20308;-66
2023/10/30 06:57:08;;;;;;;4.47;2.00;;;;;;;12.65;94.35;95536.59;2075882;28;20237;-65
2023/10/30 06:58:10;;;;;;;3.55;1.75;;;;;;;12.90;92.90;95534.88;2073953;28;20292;-65
2023/10/30 06:59:14;;;;;;;3.85;1.95;;;;;;;13.21;91.32;95536.09;2081956;28;20197;-65
2023/10/30 07:00:18;;;;;;;9.38;2.75;;;;;;;13.59;90.26;95534.25;2082462;28;20196;-65
2023/10/30 07:01:20;;;;;;;6.13;2.50;;;;;;;13.59;90.26;95534.25;2081733;28;20243;-66
2023/10/30 07:02:21;;;;;;;2.83;1.98;;;;;;;13.94;88.10;95536.03;2082287;28;20233;-65
2023/10/30 07:03:23;;;;;;;4.70;1.92;;;;;;;14.15;87.53;95536.16;2081623;28;20646;-65
2023/10/30 07:04:25;;;;;;;4.57;1.90;;;;;;;-145.49;85.71;71970.22;2081379;28;20197;-65
2023/10/30 07:05:26;;;;;;;7.75;2.28;;;;;;;14.58;84.76;95539.06;2080393;28;20257;-65
2023/10/30 07:06:29;;;;;;;3.92;1.80;;;;;;;14.44;84.93;95542.75;2080999;28;20339;-66
2023/10/30 07:07:30;;;;;;;4.63;1.90;;;;;;;14.71;83.95;95550.28;2081435;28;20220;-65
2023/10/30 07:08:32;;;;;;;4.18;1.52;;;;;;;14.95;82.28;95542.25;2083729;28;20188;-66
2023/10/30 07:09:33;;;;;;;3.20;1.27;;;;;;;14.82;82.16;95546.84;2084206;28;20204;-65
2023/10/30 07:10:35;;;;;;;4.22;2.30;;;;;;;15.53;79.91;95551.66;2083786;28;20189;-66
2023/10/30 07:11:37;;;;;;;4.68;1.85;;;;;;;15.23;79.84;95557.63;2079636;28;20274;-66
2023/10/30 07:12:39;;;;;;;3.50;1.60;;;;;;;15.32;79.53;95555.06;2082590;28;20202;-66
2023/10/30 07:13:40;;;;;;;3.42;1.70;;;;;;;14.42;81.80;95547.28;2082794;28;20197;-65
2023/10/30 07:14:42;;;;;;;3.80;2.22;;;;;;;14.79;82.56;95545.28;2078493;28;20202;-66
2023/10/30 07:15:43;;;;;;;5.05;1.65;;;;;;;16.02;77.15;95551.22;2084168;28;20284;-66
2023/10/30 07:16:45;;;;;;;4.53;1.77;;;;;;;15.57;77.62;95547.81;2082007;28;20218;-66
2023/10/30 07:18:04;;;;;;;4.53;1.80;;;;;;;14.67;81.10;95538.38;2081200;28;20195;-65
2023/10/30 07:19:06;;;;;;;3.22;1.98;;;;;;;15.23;79.31;95537.41;2081460;28;20220;-65
2023/10/30 07:20:08;;;;;;;3.85;2.00;;;;;;;14.65;80.86;95538.50;2082314;28;20706;-66
2023/10/30 07:21:10;;;;;;;6.13;2.13;;;;;;;14.81;80.75;95535.47;2084006;28;20203;-65
2023/10/30 07:22:12;;;;;;;5.22;3.28;;;;;;;14.71;80.97;95539.78;2080382;28;20290;-65
2023/10/30 07:23:13;;;;;;;4.95;2.30;;;;;;;15.26;79.41;95542.44;2082627;28;20196;-65
2023/10/30 07:24:15;;;;;;;3.40;1.98;;;;;;;14.91;80.73;95545.28;2081851;28;20204;-65
2023/10/30 07:25:16;;;;;;;5.28;2.30;;;;;;;14.85;81.08;95544.81;2083264;28;20318;-65
2023/10/30 07:26:19;;;;;;;5.03;2.90;;;;;;;15.14;79.74;95549.50;2082969;28;20192;-66
2023/10/30 07:27:20;;;;;;;5.00;2.38;;;;;;;14.50;81.55;95542.25;2081314;28;20252;-65
2023/10/30 07:28:22;;;;;;;5.13;3.38;;;;;;;14.71;82.29;95533.72;2082121;28;20593;-65
2023/10/30 07:29:23;;;;;;;6.43;3.33;;;;;;;14.91;80.03;95534.75;2082297;28;20193;-65
2023/10/30 07:30:26;;;;;;;4.30;2.80;;;;;;;14.95;81.28;95536.19;2080200;28;20197;-65
2023/10/30 07:31:28;;;;;;;7.00;3.10;;;;;;;15.04;80.82;95542.50;2079800;28;20200;-65
2023/10/30 07:32:30;;;;;;;8.48;3.20;;;;;;;15.52;79.13;95537.66;2082816;28;20216;-65
2023/10/30 07:33:32;;;;;;;4.13;2.53;;;;;;;15.43;78.83;95543.69;2082953;28;20254;-65
2023/10/30 07:34:33;;;;;;;5.55;3.05;;;;;;;16.16;76.14;95535.94;2085245;28;20208;-65
2023/10/30 07:35:35;;;;;;;4.32;2.70;;;;;;;16.32;75.14;95531.97;2082268;28;20189;-65
2023/10/30 07:36:36;;;;;;;15.90;3.22;;;;;;;15.72;76.38;95535.19;2082897;28;20235;-66
2023/10/30 07:37:38;;;;;;;7.10;3.67;;;;;;;15.87;75.73;95533.13;2081853;28;20221;-65
2023/10/30 07:38:40;;;;;;;9.63;5.15;;;;;;;15.90;75.36;95524.97;2081688;28;20204;-67
2023/10/30 07:39:41;;;;;;;5.07;2.80;;;;;;;16.59;73.57;95533.22;2081390;28;20205;-66
2023/10/30 07:40:42;;;;;;;5.47;3.45;;;;;;;15.79;75.13;95530.25;2081328;28;20572;-66
2023/10/30 07:41:44;;;;;;;5.90;3.38;;;;;;;16.89;73.16;95520.97;2082340;28;20660;-66
2023/10/30 07:42:46;;;;;;;6.50;3.45;;;;;;;16.38;73.53;95525.34;2082027;28;21177;-65
2023/10/30 07:43:48;;;;;;;9.13;3.72;;;;;;;16.52;74.09;95522.38;2078861;28;20198;-65
2023/10/30 07:44:50;;;;;;;6.75;3.50;;;;;;;16.91;72.58;95517.25;2082346;28;20693;-65
2023/10/30 07:45:52;;;;;;;7.75;3.17;;;;;;;17.20;71.40;95515.63;2081530;28;20526;-65
2023/10/30 07:46:54;;;;;;;5.72;3.55;;;;;;;16.57;72.49;95520.16;2083084;28;20221;-65
2023/10/30 07:47:55;;;;;;;8.52;2.75;;;;;;;16.12;74.36;95518.69;2083930;28;20201;-65
2023/10/30 07:48:57;;;;;;;5.97;3.38;;;;;;;16.40;74.57;95518.16;2082009;28;20220;-65
2023/10/30 07:50:01;;;;;;;6.50;3.17;;;;;;;15.16;77.55;95525.72;2084484;28;20300;-65
2023/10/30 07:51:02;;;;;;;7.18;4.30;;;;;;;14.51;80.61;95525.56;2082293;28;20194;-65
2023/10/30 07:52:04;;;;;;;5.80;3.47;;;;;;;15.35;78.84;95519.81;2081969;28;20929;-65
2023/10/30 07:53:06;;;;;;;5.28;3.47;;;;;;;15.62;76.82;95519.31;2082500;28;20181;-65
2023/10/30 07:54:07;;;;;;;5.65;3.55;;;;;;;15.67;76.83;95511.06;2084757;28;20193;-65
2023/10/30 07:55:09;;;;;;;10.90;4.20;;;;;;;16.23;74.83;95522.25;2082636;28;20337;-65
2023/10/30 07:56:10;;;;;;;10.57;3.80;;;;;;;16.10;74.62;95515.38;2082104;28;20271;-65
2023/10/30 07:57:12;;;;;;;7.32;3.40;;;;;;;15.92;75.66;95524.81;2084192;28;20221;-66
2023/10/30 07:58:14;;;;;;;6.57;4.35;;;;;;;15.80;76.50;95524.84;2083453;28;20192;-65
2023/10/30 07:59:16;;;;;;;6.75;3.97;;;;;;;15.37;77.25;95517.88;2081972;28;20942;-65
2023/10/30 08:00:17;;;;;;;8.73;5.60;;;;;;;15.61;76.17;95519.47;2081335;28;20232;-65
2023/10/30 08:01:20;;;;;;;6.72;4.22;;;;;;;15.76;75.72;95520.81;2083224;28;20276;-65
2023/10/30 08:02:22;;;;;;;5.72;3.65;;;;;;;15.74;76.66;95519.28;2082422;28;20731;-65
2023/10/30 08:03:23;;;;;;;9.23;4.05;;;;;;;15.62;77.38;95523.75;2075708;28;20229;-68
2023/10/30 08:04:25;;;;;;;13.80;4.38;;;;;;;16.16;75.77;95519.28;2075912;28;20202;-65
2023/10/30 08:05:27;;;;;;;5.32;3.88;;;;;;;16.17;74.49;95513.06;2077027;28;20209;-65
2023/10/30 08:06:28;;;;;;;9.15;4.60;;;;;;;14.97;78.89;95519.31;2076292;28;20248;-65
2023/10/30 08:07:30;;;;;;;7.05;5.20;;;;;;;15.60;76.75;95525.69;2075336;28;20228;-65
2023/10/30 08:08:32;;;;;;;5.60;3.95;;;;;;;15.89;75.17;95527.72;2076477;28;20713;-65
2023/10/30 08:09:33;;;;;;;7.85;4.70;;;;;;;16.14;74.82;95522.03;2078045;28;20295;-65
2023/10/30 08:10:35;;;;;;;7.32;4.43;;;;;;;16.34;73.40;95519.53;2075448;28;20263;-65
2023/10/30 08:11:36;;;;;;;10.45;4.45;;;;;;;16.80;73.21;95517.34;2076324;28;20208;-64
2023/10/30 08:12:39;;;;;;;7.18;4.20;;;;;;;16.87;71.87;95517.63;2076580;28;20744;-65
2023/10/30 08:13:40;;;;;;;9.10;4.70;;;;;;;16.58;73.44;95518.34;2076434;28;20220;-65
2023/10/30 08:14:42;;;;;;;7.25;4.32;;;;;;;16.45;72.75;95516.78;2077339;28;20197;-65
2023/10/30 08:15:44;;;;;;;7.47;3.90;;;;;;;16.43;73.81;95512.59;2074546;28;20220;-63
2023/10/30 08:16:45;;;;;;;7.82;5.05;;;;;;;16.26;74.66;95517.53;2075629;28;20849;-64
2023/10/30 08:17:47;;;;;;;7.32;4.35;;;;;;;16.57;72.84;95517.53;2072352;28;20619;-64
2023/10/30 08:18:48;;;;;;;8.15;5.00;;;;;;;16.73;73.25;95524.94;2076639;28;20197;-64
2023/10/30 08:19:50;;;;;;;8.55;4.90;;;;;;;17.38;71.12;95515.78;2078948;28;20208;-64
2023/10/30 08:20:51;;;;;;;9.02;4.38;;;;;;;17.65;70.49;95508.97;2073447;28;20759;-64
2023/10/30 08:21:57;;;;;;;10.25;4.95;;;;;;;18.14;68.83;95503.66;2073552;28;20252;-65
2023/10/30 08:22:59;;;;;;;7.53;5.22;;;;;;;18.28;68.16;95505.84;2075332;28;20558;-64
2023/10/30 08:24:00;;;;;;;7.80;5.20;;;;;;;17.88;69.32;95505.06;2076076;28;20618;-64
2023/10/30 08:25:02;;;;;;;9.88;4.70;;;;;;;17.04;70.59;95506.47;2076164;28;20644;-64
2023/10/30 08:26:06;;;;;;;12.00;5.22;;;;;;;15.93;73.62;95510.69;2075029;28;20876;-64
2023/10/30 08:27:07;;;;;;;14.43;5.43;;;;;;;15.82;75.67;95509.81;2082282;28;20245;-65
2023/10/30 08:28:09;;;;;;;9.90;5.88;;;;;;;15.91;74.33;95513.47;2082876;28;20631;-64
2023/10/30 08:29:10;;;;;;;8.80;6.13;;;;;;;16.02;73.88;95507.28;2084868;28;20195;-64
2023/10/30 08:30:12;;;;;;;8.70;6.13;;;;;;;16.03;74.47;95508.94;2084269;28;20196;-64
2023/10/30 08:31:15;;;;;;;10.65;6.60;;;;;;;16.14;74.69;95505.44;2086487;28;20204;-65
2023/10/30 08:32:18;;;;;;;11.80;6.45;;;;;;;16.80;72.41;95507.63;2085313;28;20221;-64
2023/10/30 08:33:20;;;;;;;13.32;8.10;;;;;;;17.95;68.61;95503.56;2083813;28;20192;-64
2023/10/30 08:34:21;;;;;;;10.25;6.53;;;;;;;18.22;67.39;95501.13;2085030;28;20678;-64
2023/10/30 08:35:23;;;;;;;9.75;6.05;;;;;;;18.50;66.78;95498.50;2085151;28;20201;-63
2023/10/30 08:36:24;;;;;;;9.93;5.78;;;;;;;19.18;65.01;95495.53;2083968;28;20280;-63
2023/10/30 08:37:26;;;;;;;9.70;5.00;;;;;;;19.03;65.86;95495.22;2084731;28;20354;-63
2023/10/30 08:38:28;;;;;;;7.32;4.82;;;;;;;18.60;66.67;95499.31;2085955;28;20192;-63
2023/10/30 08:39:29;;;;;;;9.13;5.53;;;;;;;17.66;69.24;95497.44;2085932;28;20284;-62
2023/10/30 08:40:31;;;;;;;9.55;5.13;;;;;;;18.65;66.32;95497.09;2085605;28;20706;-64
2023/10/30 08:41:33;;;;;;;8.80;4.82;;;;;;;18.67;66.52;95489.81;2085022;28;20201;-64
2023/10/30 08:42:35;;;;;;;8.27;4.90;;;;;;;19.55;65.19;95494.56;2083045;28;20188;-64
2023/10/30 08:43:36;;;;;;;8.70;4.90;;;;;;;-145.49;100.00;55703.94;2084094;28;20655;-64
2023/10/30 08:44:38;;;;;;;9.57;4.50;;;;;;;-145.49;100.00;55703.94;2082952;28;20197;-64
2023/10/30 08:45:39;;;;;;;8.55;4.70;;;;;;;-145.49;100.00;55703.94;2081895;28;20246;-64
2023/10/30 08:46:41;;;;;;;6.80;5.18;;;;;;;-145.49;100.00;55703.94;2085689;28;20192;-64
2023/10/30 08:47:43;;;;;;;8.48;4.97;;;;;;;-145.49;100.00;55703.94;2086539;28;20196;-64
2023/10/30 08:48:46;;;;;;;8.85;4.93;;;;;;;-145.49;100.00;55703.94;2084561;28;20205;-64
2023/10/30 08:49:48;;;;;;;10.27;4.47;;;;;;;-145.49;100.00;55703.94;2083030;28;20701;-64
2023/10/30 08:50:50;;;;;;;7.15;4.30;;;;;;;-145.49;100.00;55703.94;2083488;28;20228;-65
2023/10/30 08:51:52;;;;;;;6.30;4.25;;;;;;;-145.49;100.00;55703.94;2080460;28;20232;-65
2023/10/30 08:53:04;;;;;;;7.93;4.00;;;;;;;-145.49;100.00;55703.94;2084096;28;20266;-64
2023/10/30 08:54:06;;;;;;;8.57;4.50;;;;;;;-145.49;100.00;55703.94;2086253;28;20251;-64
2023/10/30 08:55:08;;;;;;;7.43;4.10;;;;;;;-145.49;100.00;55703.94;2083761;28;20195;-64
2023/10/30 08:56:10;;;;;;;6.25;4.15;;;;;;;-145.49;100.00;55703.94;2085137;28;20187;-64
2023/10/30 08:57:12;;;;;;;6.63;4.43;;;;;;;-145.49;100.00;55703.94;2082754;28;20318;-64
2023/10/30 08:58:18;;;;;;;4.97;3.78;;;;;;;-145.49;100.00;55703.94;2087439;28;20203;-64
2023/10/30 08:59:19;;;;;;;7.40;4.38;;;;;;;-145.49;100.00;55703.94;2087335;28;20189;-63
2023/10/30 09:00:21;;;;;;;8.05;4.57;;;;;;;-145.49;100.00;55703.94;2084316;28;20287;-64
2023/10/30 09:01:23;;;;;;;10.00;4.55;;;;;;;-145.49;100.00;55703.94;2083077;28;20204;-64
2023/10/30 09:02:24;;;;;;;5.85;4.35;;;;;;;-145.49;100.00;55703.94;2082979;28;20220;-64
2023/10/30 09:03:27;;;;;;;8.10;5.60;;;;;;;-145.49;100.00;55703.94;2083060;28;20239;-64
2023/10/30 09:04:28;;;;;;;7.30;4.60;;;;;;;-145.49;100.00;55703.94;2082952;28;20246;-64
2023/10/30 09:05:30;;;;;;;7.55;4.40;;;;;;;-145.49;100.00;55703.94;2081767;28;20671;-65
2023/10/30 09:06:34;;;;;;;6.75;3.95;;;;;;;-145.49;100.00;55703.94;2085606;28;20203;-64
2023/10/30 09:07:36;;;;;;;9.05;4.78;;;;;;;-145.49;100.00;55703.94;2087532;28;20233;-64
2023/10/30 09:08:37;;;;;;;6.60;4.18;;;;;;;-145.49;100.00;55703.94;2083737;28;20201;-64
2023/10/30 09:09:39;;;;;;;8.80;4.43;;;;;;;-145.49;100.00;55703.94;2086499;28;20262;-61
2023/10/30 09:10:40;;;;;;;13.80;4.75;;;;;;;-145.49;100.00;55703.94;2085389;28;20205;-60
2023/10/30 09:11:42;;;;;;;6.65;4.70;;;;;;;-145.49;100.00;55703.94;2084905;28;20197;-61
2023/10/30 09:12:43;;;;;;;5.72;3.78;;;;;;;-145.49;100.00;55703.94;2084777;28;20319;-61
2023/10/30 09:13:45;;;;;;;8.10;4.32;;;;;;;-145.49;100.00;55703.94;2084674;28;20197;-61
2023/10/30 09:14:47;;;;;;;5.00;3.58;;;;;;;-145.49;100.00;55703.94;2083063;28;20185;-60
2023/10/30 09:15:48;;;;;;;18.23;12.68;;;;;;;-145.49;100.00;55703.94;2087414;28;20214;-61
2023/10/30 09:16:50;;;;;;;8.82;5.35;;;;;;;-145.49;100.00;55703.94;2085437;28;20411;-60
2023/10/30 09:17:52;;;;;;;5.90;4.03;;;;;;;-145.49;100.00;55703.94;2080475;28;20201;-61
2023/10/30 09:18:54;;;;;;;6.65;4.20;;;;;;;-145.49;100.00;55703.94;2088963;28;20547;-60
2023/10/30 09:19:56;;;;;;;6.03;3.92;;;;;;;-145.49;100.00;55703.94;2088747;28;20586;-62
2023/10/30 09:20:57;;;;;;;6.13;4.20;;;;;;;-145.49;100.00;55703.94;2080566;28;20201;-60
2023/10/30 09:21:59;;;;;;;7.45;3.67;;;;;;;-145.49;100.00;55703.94;2079950;28;20223;-60
2023/10/30 09:23:01;;;;;;;9.43;4.15;;;;;;;-145.49;100.00;55703.94;2086501;28;20208;-60
2023/10/30 09:24:02;;;;;;;7.50;3.70;;;;;;;-145.49;100.00;55703.94;2084552;28;20310;-59
2023/10/30 09:25:04;;;;;;;6.30;4.53;;;;;;;-145.49;100.00;55703.94;2084212;28;20709;-60
2023/10/30 09:26:05;;;;;;;9.00;3.78;;;;;;;19.55;65.19;95494.56;2085474;28;20189;-60
2023/10/30 09:27:07;;;;;;;5.80;3.97;;;;;;;18.40;67.81;95458.94;2085184;28;20239;-60
2023/10/30 09:28:08;;;;;;;5.85;3.42;;;;;;;18.96;66.16;95466.84;2084530;28;20765;-60
2023/10/30 09:29:10;;;;;;;6.90;3.83;;;;;;;18.97;66.06;95450.00;2084041;28;20196;-59
2023/10/30 09:30:12;;;;;;;7.78;3.92;;;;;;;18.54;67.34;95454.97;2082739;28;20235;-60
2023/10/30 09:31:13;;;;;;;7.72;3.42;;;;;;;17.96;68.47;95456.84;2084564;28;20200;-60
2023/10/30 09:32:15;;;;;;;6.57;4.28;;;;;;;18.72;67.14;95449.72;2081244;28;20212;-60
2023/10/30 09:33:17;;;;;;;10.20;4.30;;;;;;;18.42;67.84;95454.31;2084435;28;20226;-60
2023/10/30 09:34:18;;;;;;;10.90;4.35;;;;;;;18.98;66.75;95455.16;2085644;28;20500;-60
2023/10/30 09:35:21;;;;;;;5.50;3.50;;;;;;;18.90;67.12;95455.06;2084815;28;20196;-61
2023/10/30 09:36:22;;;;;;;6.90;3.88;;;;;;;19.19;65.43;95459.34;2084211;28;20212;-60
2023/10/30 09:37:24;;;;;;;7.45;4.03;;;;;;;18.26;66.71;95457.59;2080432;28;20212;-60
2023/10/30 09:38:25;;;;;;;9.35;4.10;;;;;;;17.66;69.46;95456.06;2081191;28;20280;-60
2023/10/30 09:39:27;;;;;;;8.88;3.60;;;;;;;18.01;68.52;95451.16;2087095;28;20667;-60
2023/10/30 09:40:28;;;;;;;9.10;3.70;;;;;;;17.90;68.25;95447.69;2085899;28;20670;-60
2023/10/30 09:41:36;;;;;;;5.18;3.60;;;;;;;18.59;67.16;95445.63;2085030;28;20197;-60
2023/10/30 09:42:48;;;;;;;7.78;3.80;;;;;;;18.20;68.83;95451.06;2084884;28;20558;-61
2023/10/30 09:43:51;;;;;;;5.57;3.03;;;;;;;18.30;68.46;95450.19;2084304;28;20266;-60
2023/10/30 09:44:53;;;;;;;9.80;4.35;;;;;;;18.25;68.26;95442.72;2084986;28;20193;-60
2023/10/30 09:45:59;;;;;;;5.70;3.67;;;;;;;18.53;67.07;95448.03;2083653;28;20715;-62
2023/10/30 09:47:03;;;;;;;6.30;3.53;;;;;;;18.09;68.79;95444.19;2082716;28;20228;-60
2023/10/30 09:48:06;;;;;;;6.75;3.65;;;;;;;17.89;68.87;95445.16;2085951;28;20594;-60
2023/10/30 09:49:13;;;;;;;6.18;3.70;;;;;;;17.19;70.05;95450.66;2084292;28;20270;-60
2023/10/30 09:50:17;;;;;;;5.95;3.55;;;;;;;17.42;71.28;95444.13;2083965;28;20280;-60
2023/10/30 09:51:19;;;;;;;5.45;3.28;;;;;;;17.54;70.38;95441.34;2083916;28;20285;-61
2023/10/30 09:52:22;;;;;;;8.00;3.15;;;;;;;17.56;70.40;95439.38;2084344;28;20216;-60
2023/10/30 09:53:25;;;;;;;8.43;4.07;;;;;;;17.23;71.08;95439.69;2084453;28;20208;-61
2023/10/30 09:54:29;;;;;;;6.57;3.65;;;;;;;17.37;70.32;95441.09;2083880;28;20193;-60
2023/10/30 09:55:31;;;;;;;10.95;6.38;;;;;;;17.16;71.80;95440.41;2083864;28;20193;-60
2023/10/30 09:56:34;;;;;;;6.80;4.22;;;;;;;17.19;71.39;95434.84;2085533;28;20811;-60
2023/10/30 09:57:35;;;;;;;41.67;25.60;;;;;;;17.48;71.80;95436.63;2085235;28;20199;-60
2023/10/30 09:58:39;;;;;;;6.28;3.65;;;;;;;18.14;69.22;95440.25;2083262;28;20224;-60
2023/10/30 09:59:43;;;;;;;7.30;4.15;;;;;;;18.37;68.31;95435.44;2084119;28;20193;-60
2023/10/30 10:00:46;;;;;;;6.85;3.65;;;;;;;18.73;67.23;95441.63;2083883;28;20216;-60
2023/10/30 10:01:47;;;;;;;6.30;3.22;;;;;;;18.96;66.23;95429.81;2083214;28;20285;-60
2023/10/30 10:02:49;;;;;;;5.45;3.10;;;;;;;-145.49;100.00;55703.94;2084492;28;20188;-60
2023/10/30 10:03:51;;;;;;;5.57;3.28;;;;;;;-145.49;100.00;55703.94;2084467;28;20675;-60
2023/10/30 10:04:56;;;;;;;5.15;3.08;;;;;;;-145.49;100.00;55703.94;2081494;28;20227;-60
2023/10/30 10:05:59;;;;;;;7.60;3.30;;;;;;;-145.49;100.00;55703.94;2079416;28;20782;-60
2023/10/30 10:07:01;;;;;;;6.50;3.20;;;;;;;-145.49;100.00;55703.94;2085888;28;20863;-61
2023/10/30 10:08:03;;;;;;;6.00;3.33;;;;;;;-145.49;100.00;55703.94;2084747;28;20279;-61
2023/10/30 10:09:05;;;;;;;7.20;3.10;;;;;;;-145.49;100.00;55703.94;2080762;28;20197;-61
2023/10/30 10:10:12;;;;;;;5.82;2.65;;;;;;;-145.49;100.00;55703.94;2081914;28;20200;-61
2023/10/30 10:11:13;;;;;;;5.90;2.88;;;;;;;-145.49;100.00;55703.94;2082761;28;20559;-61
2023/10/30 10:12:19;;;;;;;4.80;3.10;;;;;;;-145.49;100.00;55703.94;2084881;28;20259;-61
2023/10/30 10:13:22;;;;;;;4.25;2.70;;;;;;;-145.49;100.00;55703.94;2083928;28;20205;-61
2023/10/30 10:14:24;;;;;;;5.13;3.00;;;;;;;-145.49;100.00;55703.94;2083494;28;20188;-61
2023/10/30 10:15:31;;;;;;;12.40;3.60;;;;;;;18.96;66.23;95429.81;2086530;28;20215;-60
2023/10/30 10:16:35;;;;;;;10.35;3.45;;;;;;;19.24;64.35;95423.50;2086424;28;20222;-60
2023/10/30 10:17:42;;;;;;;6.82;3.10;;;;;;;19.40;64.67;95422.81;2082915;28;20188;-60
2023/10/30 10:18:43;;;;;;;7.47;2.60;;;;;;;19.04;66.80;95425.44;2083195;28;20191;-60
2023/10/30 10:19:46;;;;;;;5.80;3.15;;;;;;;18.30;67.03;95427.25;2083493;28;20197;-60
2023/10/30 10:20:55;;;;;;;9.05;3.65;;;;;;;17.83;68.93;95422.81;2083694;28;20535;-60
2023/10/30 10:21:58;;;;;;;6.85;2.92;;;;;;;17.74;69.52;95418.41;2083898;28;20253;-60
2023/10/30 10:23:00;;;;;;;8.20;3.35;;;;;;;16.87;71.01;95422.72;2079778;28;20199;-60
2023/10/30 10:24:01;;;;;;;7.18;3.50;;;;;;;16.81;71.80;95418.81;2084533;28;20200;-60
2023/10/30 10:25:03;;;;;;;6.45;3.38;;;;;;;16.86;72.17;95416.63;2083091;28;20201;-60
2023/10/30 10:26:15;;;;;;;6.53;3.20;;;;;;;16.94;71.93;95410.69;2084290;28;20260;-61
2023/10/30 10:27:16;;;;;;;7.70;3.80;;;;;;;16.44;73.32;95404.47;2083457;28;20224;-61
2023/10/30 10:28:18;;;;;;;18.90;3.45;;;;;;;16.40;73.77;95397.78;2084085;28;20905;-61
2023/10/30 10:29:25;;;;;;;7.45;3.15;;;;;;;16.92;73.03;95391.53;2081203;28;20193;-61
2023/10/30 10:30:28;;;;;;;7.03;3.03;;;;;;;16.60;73.94;95397.84;2083731;28;20276;-61
2023/10/30 10:31:30;;;;;;;5.28;3.20;;;;;;;16.30;75.63;95391.66;2083330;28;20220;-61
2023/10/30 10:32:32;;;;;;;5.65;3.15;;;;;;;16.49;75.25;95389.09;2081861;28;20292;-61
2023/10/30 10:33:36;;;;;;;8.70;3.50;;;;;;;16.53;73.67;95386.19;2080922;28;20672;-61
2023/10/30 10:34:41;;;;;;;5.60;3.22;;;;;;;16.39;74.80;95376.84;2081718;28;20681;-61
2023/10/30 10:35:42;;;;;;;4.97;2.97;;;;;;;15.98;77.66;95374.25;2081232;28;20185;-61
2023/10/30 10:36:44;;;;;;;8.00;3.15;;;;;;;16.45;76.46;95369.25;2082481;28;20273;-61
2023/10/30 10:37:47;;;;;;;7.47;3.67;;;;;;;16.08;76.03;95369.03;2084537;28;20197;-61
2023/10/30 10:38:59;;;;;;;6.72;2.97;;;;;;;16.28;76.92;95372.56;2082964;28;20688;-61
2023/10/30 10:40:02;;;;;;;5.65;3.15;;;;;;;16.56;76.54;95381.47;2082433;28;20196;-61
2023/10/30 10:41:05;;;;;;;9.73;2.85;;;;;;;16.47;75.75;95380.50;2085681;28;20196;-61
2023/10/30 10:42:07;;;;;;;6.00;2.90;;;;;;;16.42;76.53;95382.69;2079493;28;20677;-60
2023/10/30 10:43:09;;;;;;;6.50;3.10;;;;;;;15.60;77.64;95376.53;2079893;28;20216;-61
2023/10/30 10:44:11;;;;;;;7.00;3.03;;;;;;;15.66;79.05;95376.00;2085230;28;20197;-60
2023/10/30 10:45:14;;;;;;;10.65;2.30;;;;;;;15.63;79.42;95375.44;2082777;28;20212;-62
2023/10/30 10:46:16;;;;;;;10.82;2.85;;;;;;;15.53;79.10;95375.41;2084630;28;20818;-61
2023/10/30 10:47:18;;;;;;;9.20;3.72;;;;;;;15.39;79.52;95373.09;2084143;28;20240;-61
2023/10/30 10:48:22;;;;;;;5.47;3.15;;;;;;;15.44;80.39;95365.63;2083321;28;20203;-61
2023/10/30 10:49:24;;;;;;;7.63;3.15;;;;;;;15.26;78.82;95358.38;2080690;28;20203;-61
2023/10/30 10:50:25;;;;;;;6.28;3.13;;;;;;;15.14;80.18;95351.50;2091894;28;20192;-61
2023/10/30 10:51:34;;;;;;;5.32;3.40;;;;;;;15.28;80.20;95347.72;2092525;28;20838;-61
2023/10/30 10:52:39;;;;;;;7.55;2.95;;;;;;;15.22;80.52;95353.47;2085542;28;20203;-61
2023/10/30 10:53:45;;;;;;;8.70;4.07;;;;;;;15.32;80.61;95346.47;2084242;28;20296;-61
2023/10/30 10:54:53;;;;;;;5.60;2.97;;;;;;;14.88;82.61;95336.09;2083096;28;20247;-60
2023/10/30 10:56:05;;;;;;;5.63;3.22;;;;;;;14.99;82.53;95336.03;2083628;28;20197;-61
2023/10/30 10:57:08;;;;;;;8.20;2.90;;;;;;;14.71;82.95;95339.28;2082131;28;21019;-61
2023/10/30 10:58:09;;;;;;;10.05;2.83;;;;;;;14.68;82.73;95340.38;2083786;28;20193;-60
2023/10/30 10:59:15;;;;;;;21.42;12.75;;;;;;;14.53;82.58;95339.78;2082283;28;20613;-61
2023/10/30 11:00:17;;;;;;;5.57;3.20;;;;;;;14.46;84.11;95336.84;2083392;28;20259;-62
2023/10/30 11:01:20;;;;;;;3.83;2.75;;;;;;;14.30;85.18;95334.59;2082870;28;20231;-62
2023/10/30 11:02:31;;;;;;;6.63;3.10;;;;;;;14.34;84.35;95336.00;2081020;28;20221;-61
2023/10/30 11:03:32;;;;;;;8.32;3.28;;;;;;;14.44;83.92;95337.91;2085236;28;20551;-62
2023/10/30 11:04:37;;;;;;;5.65;2.92;;;;;;;14.43;84.02;95352.00;2083459;28;20259;-62
2023/10/30 11:05:39;;;;;;;8.02;3.10;;;;;;;14.33;83.72;95342.22;2080749;28;20276;-61
2023/10/30 11:06:48;;;;;;;6.63;3.13;;;;;;;14.30;84.31;95331.97;2092227;28;20295;-61
2023/10/30 11:08:00;;;;;;;5.97;2.78;;;;;;;14.44;84.46;95335.28;2089626;28;20245;-61
2023/10/30 11:09:32;;;;;;;7.35;3.10;;;;;;;14.22;86.24;95337.03;2085457;28;20189;-61
2023/10/30 11:10:39;;;;;;;10.02;2.92;;;;;;;14.31;85.33;95335.41;2084895;28;20626;-61
2023/10/30 11:11:47;;;;;;;7.57;2.38;;;;;;;14.23;85.05;95328.16;2085524;28;20551;-63
2023/10/30 11:13:02;;;;;;;12.93;2.78;;;;;;;14.38;84.97;95333.97;2085452;28;20728;-61
2023/10/30 11:14:31;;;;;;;8.50;2.60;;;;;;;14.07;85.01;95330.34;2086401;28;20268;-62
2023/10/30 11:15:36;;;;;;;4.80;2.53;;;;;;;14.00;85.98;95330.00;2082932;28;20216;-62
2023/10/30 11:16:46;;;;;;;7.65;3.25;;;;;;;14.21;85.20;95323.03;2084782;28;20196;-62
2023/10/30 11:18:17;;;;;;;7.35;3.00;;;;;;;14.35;85.09;95323.72;2086007;28;20701;-62
2023/10/30 11:19:19;;;;;;;4.68;2.50;;;;;;;14.42;84.69;95322.25;2083290;28;20285;-62
2023/10/30 11:28:28;;;;;;;7.20;2.95;;;;;;;14.01;86.42;95315.94;2101470;27;21054;-61
2023/10/30 11:34:50;;;;;;;10.55;2.38;;;;;;;13.92;86.18;95293.88;2090154;27;20768;-61
2023/10/30 11:40:09;;;;;;;6.78;1.83;;;;;;;13.76;88.53;95293.44;2100955;27;20566;-61
2023/10/30 11:45:24;;;;;;;4.72;2.20;;;;;;;13.73;88.75;95283.19;2084770;28;20569;-61
2023/10/30 11:50:43;;;;;;;5.53;2.70;;;;;;;13.80;89.90;95264.22;2083622;28;20568;-61
2023/10/30 11:55:17;;;;;;;6.25;2.47;;;;;;;13.59;90.54;95252.81;2084520;28;20577;-61
2023/10/30 11:59:42;;;;;;;4.43;1.75;;;;;;;13.84;89.33;95242.00;2107092;27;20557;-61
2023/10/30 12:00:45;;;;;;;5.28;1.73;;;;;;;13.81;87.57;95244.88;2106633;28;20212;-62
2023/10/30 12:05:38;;;;;;;2.67;1.80;;;;;;;13.49;90.16;95229.06;2103139;27;20564;-59
2023/10/30 12:06:40;;;;;;;9.98;2.35;;;;;;;13.50;89.60;95228.94;2101937;27;20191;-59
2023/10/30 12:11:07;;;;;;;14.50;2.03;;;;;;;13.54;89.56;95221.69;2082479;28;20567;-61
2023/10/30 12:12:09;;;;;;;4.38;1.73;;;;;;;13.72;89.37;95222.00;2076938;28;20248;-61
2023/10/30 12:16:51;;;;;;;9.00;1.95;;;;;;;13.69;87.23;95211.75;2095861;27;20578;-58
2023/10/30 12:17:53;;;;;;;2.97;1.50;;;;;;;13.60;88.19;95207.22;2088754;28;20199;-61
2023/10/30 12:22:30;;;;;;;3.90;1.90;;;;;;;13.65;88.73;95199.81;2079000;27;20569;-60
2023/10/30 12:23:31;;;;;;;5.65;1.95;;;;;;;13.75;88.39;95199.94;2079506;28;20339;-61
2023/10/30 12:28:17;;;;;;;3.72;1.92;;;;;;;13.48;88.96;95186.28;2084659;28;20576;-59
2023/10/30 12:29:22;;;;;;;9.05;2.00;;;;;;;13.44;89.07;95174.38;2080008;28;20205;-59
2023/10/30 12:34:11;;;;;;;3.35;1.83;;;;;;;13.52;89.37;95165.88;2083082;28;21115;-61
2023/10/30 12:35:14;;;;;;;26.58;1.88;;;;;;;13.62;88.85;95169.44;2080841;28;20196;-61
2023/10/30 12:39:31;;;;;;;4.53;2.10;;;;;;;13.88;88.31;95177.84;2111653;27;20562;-61
2023/10/30 12:40:32;;;;;;;5.43;2.05;;;;;;;13.87;87.40;95165.66;2110756;28;20672;-61
2023/10/30 12:41:33;;;;;;;8.65;2.40;;;;;;;13.95;88.09;95169.47;2109839;28;20190;-61